Time;durP1;ratioP1;P1;durP2;ratioP2;P2;SDS_P1;SDS_P2;PMS_P1;PMS_P2;Temp;Humidity;BMP_temperature;BMP_pressure;BME280_temperature;BME280_humidity;BME280_pressure;Samples;Min_cycle;Max_cycle;Signal;HPM_P1;HPM_P2
2022/10/24 00:03:52;;;;;;;15.25;12.23;;;;;;;9.05;100.00;100480.38;10494410;28;20047;-66
2022/10/24 00:08:52;;;;;;;16.75;13.02;;;;;;;9.26;100.00;100503.88;10493632;28;20089;-66
2022/10/24 00:13:56;;;;;;;15.77;12.02;;;;;;;9.27;100.00;100512.66;10501611;28;20178;-66
2022/10/24 00:18:57;;;;;;;14.07;10.70;;;;;;;8.64;100.00;100423.59;10502837;28;20037;-66
2022/10/24 00:23:58;;;;;;;15.60;11.63;;;;;;;9.28;100.00;100506.41;10503064;28;20044;-66
2022/10/24 00:28:58;;;;;;;15.73;11.43;;;;;;;9.27;100.00;100502.06;10503062;28;20040;-67
2022/10/24 00:33:59;;;;;;;15.40;11.48;;;;;;;9.32;100.00;100495.31;10503393;28;20133;-66
2022/10/24 00:39:01;;;;;;;15.63;11.90;;;;;;;9.49;100.00;100514.81;10501895;28;20182;-66
2022/10/24 00:44:38;;;;;;;16.45;11.98;;;;;;;9.55;100.00;100535.41;10501630;28;20049;-66
2022/10/24 00:49:43;;;;;;;18.52;12.82;;;;;;;9.52;100.00;100521.63;10458103;28;20044;-67
2022/10/24 00:54:45;;;;;;;19.45;13.30;;;;;;;9.40;100.00;100499.03;10501421;28;20040;-67
2022/10/24 00:59:50;;;;;;;21.92;13.60;;;;;;;9.46;100.00;100485.97;10501347;28;20036;-67
2022/10/24 01:04:53;;;;;;;17.80;11.25;;;;;;;8.80;100.00;100370.78;10495306;28;20048;-66
2022/10/24 01:10:12;;;;;;;20.45;12.65;;;;;;;9.59;100.00;100496.97;10500951;28;20044;-66
2022/10/24 01:15:45;;;;;;;15.52;10.98;;;;;;;9.67;100.00;100496.19;10460330;28;20041;-69
2022/10/24 01:21:23;;;;;;;16.88;12.85;;;;;;;9.67;100.00;100490.88;10462034;28;20044;-67
2022/10/24 01:26:42;;;;;;;16.17;12.27;;;;;;;9.32;100.00;100444.13;10499668;28;20051;-67
2022/10/24 01:31:55;;;;;;;16.58;11.38;;;;;;;9.62;100.00;100471.94;10500641;28;20060;-67
2022/10/24 01:37:03;;;;;;;17.00;12.27;;;;;;;9.60;100.00;100472.13;10493889;28;20045;-67
2022/10/24 01:42:06;;;;;;;15.93;12.75;;;;;;;9.59;100.00;100482.88;10475317;28;20040;-66
2022/10/24 01:47:13;;;;;;;19.92;13.70;;;;;;;9.44;100.00;100465.88;10495438;28;20051;-66
2022/10/24 01:52:16;;;;;;;26.80;17.73;;;;;;;8.91;100.00;100385.56;10472587;28;20045;-67
2022/10/24 01:57:17;;;;;;;20.17;15.07;;;;;;;9.17;100.00;100424.47;10458651;28;20122;-66
2022/10/24 02:02:26;;;;;;;19.10;13.73;;;;;;;9.56;100.00;100505.22;10471148;28;20135;-66
2022/10/24 02:07:29;;;;;;;15.75;12.60;;;;;;;9.70;100.00;100510.94;10498980;28;20043;-66
2022/10/24 02:12:30;;;;;;;16.25;12.38;;;;;;;9.66;100.00;100488.38;10497000;28;20037;-67
2022/10/24 02:17:31;;;;;;;18.10;12.38;;;;;;;9.78;100.00;100510.97;10498172;28;20045;-67
2022/10/24 02:23:03;;;;;;;18.98;12.88;;;;;;;9.69;100.00;100472.13;10464629;28;20037;-67
2022/10/24 02:28:08;;;;;;;16.88;12.23;;;;;;;9.81;100.00;100487.63;10457583;28;20524;-67
2022/10/24 02:33:11;;;;;;;18.38;13.05;;;;;;;9.66;100.00;100477.75;10455233;28;20060;-68
2022/10/24 02:38:12;;;;;;;21.08;14.05;;;;;;;9.66;100.00;100483.06;10457003;28;20051;-66
2022/10/24 02:43:13;;;;;;;17.45;12.95;;;;;;;9.49;100.00;100440.56;10455533;28;20067;-66
2022/10/24 02:48:18;;;;;;;19.58;14.50;;;;;;;9.22;100.00;100411.59;10456396;28;20045;-67
2022/10/24 02:53:23;;;;;;;18.15;13.80;;;;;;;9.71;100.00;100497.50;10454697;28;20037;-67
2022/10/24 02:58:24;;;;;;;19.42;14.30;;;;;;;9.74;100.00;100507.81;10455995;28;20037;-67
2022/10/24 03:03:25;;;;;;;20.30;14.85;;;;;;;9.37;100.00;100436.53;10456125;28;20047;-66
2022/10/24 03:08:26;;;;;;;28.80;14.25;;;;;;;9.83;100.00;100513.97;10465960;28;20036;-67
2022/10/24 03:13:26;;;;;;;21.52;14.07;;;;;;;9.69;100.00;100496.00;10452696;28;20048;-67
2022/10/24 03:18:27;;;;;;;24.92;14.35;;;;;;;8.95;100.00;100371.03;10449496;28;20094;-67
2022/10/24 03:23:29;;;;;;;16.38;13.48;;;;;;;9.82;100.00;100513.16;10450980;28;20067;-66
2022/10/24 03:28:30;;;;;;;18.52;14.70;;;;;;;9.36;100.00;100414.50;10453728;28;20103;-66
2022/10/24 03:33:31;;;;;;;19.65;14.90;;;;;;;9.54;100.00;100440.06;10454934;28;20053;-66
2022/10/24 03:38:32;;;;;;;18.27;14.30;;;;;;;9.34;100.00;100447.44;10454467;28;20107;-66
2022/10/24 03:43:33;;;;;;;28.02;14.45;;;;;;;9.84;100.00;100481.16;10470740;28;20487;-66
2022/10/24 03:48:33;;;;;;;27.77;16.00;;;;;;;9.76;100.00;100460.75;10494649;28;20048;-66
2022/10/24 03:53:34;;;;;;;22.80;15.65;;;;;;;9.78;100.00;100471.19;10495669;28;20174;-66
2022/10/24 03:58:35;;;;;;;22.52;15.50;;;;;;;9.69;100.00;100461.53;10495069;28;20047;-67
2022/10/24 04:03:36;;;;;;;16.40;12.73;;;;;;;9.79;100.00;100510.00;10475554;28;20497;-66
2022/10/24 04:08:37;;;;;;;14.40;9.57;;;;;;;9.81;100.00;100486.78;10495459;28;20063;-67
2022/10/24 04:13:39;;;;;;;22.55;12.73;;;;;;;9.50;100.00;100441.38;10495330;28;20114;-67
2022/10/24 04:18:40;;;;;;;16.48;11.00;;;;;;;9.84;100.00;100489.09;10494688;28;20070;-66
2022/10/24 04:23:43;;;;;;;19.35;12.38;;;;;;;9.94;100.00;100489.81;10494629;28;20071;-67
2022/10/24 04:28:45;;;;;;;16.90;11.63;;;;;;;10.03;100.00;100502.13;10492422;28;20041;-68
2022/10/24 04:33:46;;;;;;;14.45;10.95;;;;;;;10.13;100.00;100487.91;10489486;28;20059;-68
2022/10/24 04:38:47;;;;;;;14.50;9.98;;;;;;;10.20;100.00;100475.63;10490288;28;20049;-68
2022/10/24 04:43:48;;;;;;;14.50;11.35;;;;;;;9.88;100.00;100424.13;10491389;28;20052;-66
2022/10/24 04:48:49;;;;;;;20.80;9.68;;;;;;;9.69;100.00;100389.91;10488749;28;20068;-67
2022/10/24 04:53:50;;;;;;;15.32;10.85;;;;;;;10.10;100.00;100454.53;10454377;28;20404;-67
2022/10/24 04:58:51;;;;;;;11.63;9.07;;;;;;;9.96;100.00;100429.47;10455811;28;20072;-67
2022/10/24 05:03:52;;;;;;;12.65;9.13;;;;;;;10.01;100.00;100429.78;10460712;28;20500;-67
2022/10/24 05:08:52;;;;;;;12.18;9.60;;;;;;;9.52;100.00;100358.03;10460040;28;20048;-68
2022/10/24 05:13:53;;;;;;;19.48;10.00;;;;;;;10.00;100.00;100438.75;10459333;28;20040;-67
2022/10/24 05:18:54;;;;;;;36.72;11.65;;;;;;;9.95;100.00;100409.22;10459203;28;20044;-67
2022/10/24 05:23:55;;;;;;;16.52;10.63;;;;;;;9.58;100.00;100368.00;10459265;28;20037;-67
2022/10/24 05:28:55;;;;;;;17.52;11.27;;;;;;;10.06;100.00;100447.91;10458747;28;20037;-68
2022/10/24 05:33:56;;;;;;;15.57;10.98;;;;;;;9.97;100.00;100393.16;10459712;28;20061;-67
2022/10/24 05:38:57;;;;;;;16.25;12.57;;;;;;;9.93;100.00;100423.63;10458929;28;20396;-67
2022/10/24 05:43:58;;;;;;;17.90;12.55;;;;;;;10.17;100.00;100475.94;10458081;28;20731;-66
2022/10/24 05:48:59;;;;;;;13.82;10.75;;;;;;;10.30;100.00;100491.47;10458065;28;20048;-67
2022/10/24 05:53:59;;;;;;;15.05;10.95;;;;;;;10.17;100.00;100489.22;10458729;28;20079;-66
2022/10/24 05:59:02;;;;;;;16.55;11.70;;;;;;;9.92;100.00;100470.56;10458192;28;20029;-66
2022/10/24 06:04:03;;;;;;;14.70;11.43;;;;;;;10.28;100.00;100542.88;10457321;28;20051;-67
2022/10/24 06:09:04;;;;;;;20.85;12.23;;;;;;;10.45;100.00;100558.88;10456894;28;20041;-66
2022/10/24 06:14:05;;;;;;;21.10;15.15;;;;;;;10.54;100.00;100565.88;10456494;28;20488;-67
2022/10/24 06:19:06;;;;;;;20.02;14.30;;;;;;;10.65;100.00;100573.56;10457376;28;20048;-67
2022/10/24 06:24:07;;;;;;;14.80;12.07;;;;;;;10.64;100.00;100541.81;10456333;28;20041;-67
2022/10/24 06:29:07;;;;;;;22.48;14.50;;;;;;;10.82;100.00;100541.69;10456932;28;20051;-67
2022/10/24 06:34:08;;;;;;;17.10;14.20;;;;;;;11.01;100.00;100546.69;10457325;28;20057;-69
2022/10/24 06:39:09;;;;;;;18.20;14.05;;;;;;;10.98;100.00;100544.38;10456342;28;20067;-67
2022/10/24 06:44:10;;;;;;;16.33;12.68;;;;;;;10.78;100.00;100472.09;10456395;28;20128;-67
2022/10/24 06:49:12;;;;;;;18.20;13.00;;;;;;;11.00;100.00;100494.50;10455522;28;20029;-67
2022/10/24 06:54:13;;;;;;;19.30;13.80;;;;;;;10.81;100.00;100481.56;10456117;28;20056;-67
2022/10/24 06:59:16;;;;;;;14.50;11.98;;;;;;;11.22;100.00;100519.59;10455058;28;20044;-67
2022/10/24 07:04:17;;;;;;;17.35;13.25;;;;;;;11.23;100.00;100499.97;10453649;28;20067;-67
2022/10/24 07:09:18;;;;;;;14.48;11.45;;;;;;;11.36;100.00;100520.72;10455490;28;20044;-67
2022/10/24 07:14:18;;;;;;;31.70;16.70;;;;;;;11.49;100.00;100523.72;10455318;28;20069;-67
2022/10/24 07:19:19;;;;;;;34.03;19.73;;;;;;;11.31;100.00;100465.41;10454723;28;20091;-67
2022/10/24 07:24:21;;;;;;;33.40;24.33;;;;;;;11.58;100.00;100480.13;10453920;28;20095;-67
2022/10/24 07:29:22;;;;;;;33.08;20.67;;;;;;;11.38;100.00;100437.09;10454334;28;20029;-67
2022/10/24 07:34:23;;;;;;;27.17;19.95;;;;;;;11.85;100.00;100481.53;10453974;28;20063;-67
2022/10/24 07:39:23;;;;;;;26.17;18.45;;;;;;;11.43;100.00;100384.22;10454940;28;20059;-69
2022/10/24 07:44:24;;;;;;;27.95;20.80;;;;;;;11.88;100.00;100491.03;10453891;28;20049;-67
2022/10/24 07:49:25;;;;;;;14.25;12.68;;;;;;;11.42;100.00;100430.44;10454307;28;20091;-67
2022/10/24 07:54:27;;;;;;;12.43;11.02;;;;;;;11.89;100.00;100495.34;10454295;28;20045;-67
2022/10/24 07:59:29;;;;;;;13.15;10.43;;;;;;;12.01;99.80;100458.50;10454225;28;20036;-68
2022/10/24 08:04:29;;;;;;;16.13;9.60;;;;;;;12.45;98.01;100404.63;10453808;28;20044;-67
2022/10/24 08:09:30;;;;;;;13.43;9.02;;;;;;;13.23;95.14;100486.91;10453350;28;20171;-68
2022/10/24 08:14:31;;;;;;;14.68;9.90;;;;;;;13.03;93.57;100435.91;10452250;28;20048;-67
2022/10/24 08:19:32;;;;;;;12.27;9.80;;;;;;;13.04;90.98;100348.72;10453205;28;20041;-68
2022/10/24 08:24:33;;;;;;;14.30;8.90;;;;;;;13.72;88.31;100412.66;10454018;28;20041;-68
2022/10/24 08:29:34;;;;;;;32.60;10.02;;;;;;;14.25;86.99;100422.09;10452814;28;20041;-68
2022/10/24 08:34:37;;;;;;;12.13;8.95;;;;;;;14.04;84.95;100374.81;10459290;28;20072;-68
2022/10/24 08:39:38;;;;;;;11.95;9.18;;;;;;;14.44;84.23;100439.34;10459509;28;20048;-68
2022/10/24 08:44:43;;;;;;;11.52;8.43;;;;;;;14.89;83.00;100457.88;10461333;28;20098;-70
2022/10/24 08:50:01;;;;;;;12.90;8.77;;;;;;;15.45;79.72;100464.03;10461216;28;20072;-67
2022/10/24 08:55:19;;;;;;;9.82;8.50;;;;;;;15.52;77.33;100456.03;10461198;28;20438;-66
2022/10/24 09:00:30;;;;;;;11.45;8.10;;;;;;;15.41;79.95;100464.66;10460802;28;20137;-66
2022/10/24 09:05:40;;;;;;;11.05;8.30;;;;;;;14.75;79.00;100387.44;10460644;28;20041;-66
2022/10/24 09:10:48;;;;;;;11.45;8.10;;;;;;;15.00;79.39;100431.41;10459468;28;20107;-66
2022/10/24 09:15:50;;;;;;;8.60;7.70;;;;;;;15.05;80.44;100445.06;10459368;28;20048;-66
2022/10/24 09:20:52;;;;;;;9.75;7.55;;;;;;;15.34;78.88;100440.50;10459202;28;20043;-66
2022/10/24 09:25:57;;;;;;;9.02;7.38;;;;;;;15.49;76.11;100448.41;10459329;28;20094;-66
2022/10/24 09:30:57;;;;;;;9.18;7.05;;;;;;;15.51;76.98;100420.41;10459696;28;20501;-67
2022/10/24 09:36:02;;;;;;;10.38;7.13;;;;;;;15.26;74.75;100357.69;10459268;28;20052;-67
2022/10/24 09:41:25;;;;;;;8.98;5.80;;;;;;;15.60;71.53;100404.19;10458955;28;20037;-67
2022/10/24 09:46:37;;;;;;;12.57;5.97;;;;;;;15.79;70.79;100422.19;10457965;28;20041;-67
2022/10/24 09:52:10;;;;;;;8.57;6.10;;;;;;;15.44;71.25;100375.91;10458527;28;20052;-67
2022/10/24 09:57:10;;;;;;;7.25;5.35;;;;;;;15.88;73.09;100420.19;10442181;28;20398;-66
2022/10/24 10:02:20;;;;;;;9.30;5.22;;;;;;;15.78;69.97;100403.66;10457423;28;20041;-66
2022/10/24 10:07:26;;;;;;;6.13;5.30;;;;;;;15.69;70.69;100384.28;10457332;28;20037;-67
2022/10/24 10:12:36;;;;;;;5.85;4.47;;;;;;;15.80;70.60;100391.75;10457610;28;20153;-67
2022/10/24 10:17:49;;;;;;;8.75;5.00;;;;;;;15.87;69.91;100397.94;10456962;28;20058;-67
2022/10/24 10:22:50;;;;;;;7.63;4.00;;;;;;;15.34;71.22;100328.06;10456568;28;20076;-67
2022/10/24 10:27:51;;;;;;;6.75;3.88;;;;;;;15.53;71.46;100354.13;10457168;28;20060;-69
2022/10/24 10:33:01;;;;;;;706.20;503.10;;;;;;;15.06;71.64;100262.09;10457536;28;20488;-67
2022/10/24 10:38:12;;;;;;;131.32;74.43;;;;;;;15.74;72.09;100381.81;10456673;28;20045;-66
2022/10/24 10:43:46;;;;;;;19.48;10.15;;;;;;;15.65;72.62;100375.78;10456448;28;20041;-66
2022/10/24 10:48:55;;;;;;;12.15;5.07;;;;;;;15.57;73.45;100375.13;10456248;28;20036;-68
2022/10/24 10:53:58;;;;;;;5.93;3.60;;;;;;;15.65;72.82;100367.75;10455535;28;20036;-66
2022/10/24 10:59:14;;;;;;;7.28;3.22;;;;;;;15.83;73.12;100363.72;10455725;28;20087;-67
2022/10/24 11:04:42;;;;;;;10.07;3.75;;;;;;;16.00;72.86;100353.44;10455655;28;20049;-66
2022/10/24 11:09:47;;;;;;;5.32;2.88;;;;;;;16.07;72.61;100359.66;10455187;28;20084;-67
2022/10/24 11:14:59;;;;;;;7.15;3.30;;;;;;;16.09;72.84;100373.66;10454798;28;20045;-66
2022/10/24 11:20:28;;;;;;;11.55;2.63;;;;;;;15.97;72.51;100350.16;10455211;28;20068;-66
2022/10/24 11:25:35;;;;;;;4.45;2.42;;;;;;;16.00;72.06;100358.81;10455192;28;20052;-68
2022/10/24 11:30:50;;;;;;;6.82;2.00;;;;;;;15.98;71.60;100345.63;10454822;28;20053;-69
2022/10/24 11:36:10;;;;;;;3.85;1.70;;;;;;;16.14;71.62;100382.75;10454562;28;20496;-67
2022/10/24 11:41:31;;;;;;;3.20;1.70;;;;;;;16.12;71.83;100390.19;10413360;28;20053;-66
2022/10/24 11:46:41;;;;;;;2.90;1.67;;;;;;;16.18;71.62;100388.50;10413161;28;20145;-67
2022/10/24 11:51:57;;;;;;;4.65;2.08;;;;;;;16.10;71.61;100381.50;10413067;28;20076;-66
2022/10/24 11:57:07;;;;;;;3.60;1.83;;;;;;;16.10;71.68;100423.56;10412997;28;20041;-65
2022/10/24 12:03:01;;;;;;;4.53;1.92;;;;;;;16.11;71.63;100409.94;10412376;28;20045;-66
2022/10/24 12:08:34;;;;;;;4.72;1.75;;;;;;;16.17;71.03;100414.50;10416101;28;20144;-65
2022/10/24 12:13:37;;;;;;;5.38;2.92;;;;;;;16.03;71.18;100417.34;10425823;28;20048;-66
2022/10/24 12:18:56;;;;;;;8.02;2.25;;;;;;;15.97;70.93;100418.97;10434419;28;20045;-71
2022/10/24 12:23:59;;;;;;;5.88;2.30;;;;;;;15.88;71.42;100420.19;10453447;28;20510;-68
2022/10/24 12:29:05;;;;;;;4.28;2.35;;;;;;;15.58;71.43;100364.22;10453684;28;20055;-67
2022/10/24 12:34:14;;;;;;;4.45;2.25;;;;;;;15.91;70.63;100419.78;10445144;28;20057;-70
2022/10/24 12:39:32;;;;;;;6.57;2.67;;;;;;;15.51;70.06;100350.81;10453243;28;20040;-67
2022/10/24 12:44:33;;;;;;;8.23;3.30;;;;;;;15.92;70.51;100437.53;10461025;28;20040;-67
2022/10/24 12:49:34;;;;;;;4.88;3.35;;;;;;;15.78;70.70;100414.38;10460884;28;20485;-67
2022/10/24 12:54:39;;;;;;;9.55;4.18;;;;;;;15.86;70.75;100444.50;10459319;28;20128;-70
2022/10/24 12:59:53;;;;;;;8.98;4.20;;;;;;;15.73;70.56;100433.72;10459962;28;20037;-66
2022/10/24 13:05:30;;;;;;;7.50;4.38;;;;;;;15.48;70.90;100395.91;10459963;28;20048;-66
2022/10/24 13:11:36;;;;;;;6.80;4.20;;;;;;;15.64;71.27;100434.88;10443575;28;20071;-67
2022/10/24 13:16:57;;;;;;;9.05;4.43;;;;;;;15.56;71.10;100449.28;10424333;28;20497;-67
2022/10/24 13:22:01;;;;;;;13.02;6.68;;;;;;;15.38;71.38;100447.13;10416982;28;20060;-66
2022/10/24 13:27:07;;;;;;;11.68;6.10;;;;;;;15.32;71.71;100458.63;10419861;28;20128;-67
2022/10/24 13:32:11;;;;;;;8.25;4.90;;;;;;;15.10;72.31;100455.16;10432913;28;20057;-66
2022/10/24 13:37:20;;;;;;;10.03;4.67;;;;;;;14.92;72.58;100449.47;10418837;28;20037;-67
2022/10/24 13:42:26;;;;;;;7.15;4.25;;;;;;;14.78;72.77;100456.56;10423035;28;20283;-67
2022/10/24 13:47:41;;;;;;;7.53;4.50;;;;;;;14.73;72.98;100469.69;10438596;28;20114;-67
2022/10/24 13:52:58;;;;;;;8.98;4.30;;;;;;;14.63;73.34;100471.81;10414311;28;20129;-68
2022/10/24 13:58:05;;;;;;;12.77;4.93;;;;;;;14.51;73.27;100476.84;10414743;28;20049;-66
2022/10/24 14:03:28;;;;;;;6.25;3.92;;;;;;;14.38;73.72;100482.88;10416447;28;20037;-66
2022/10/24 14:08:30;;;;;;;10.50;4.40;;;;;;;14.21;74.18;100486.78;10428938;28;20049;-66
2022/10/24 14:13:36;;;;;;;6.63;3.90;;;;;;;12.86;73.98;100293.09;10420888;28;20033;-68
2022/10/24 14:18:38;;;;;;;8.02;4.20;;;;;;;13.88;74.84;100492.53;10427375;28;20075;-66
2022/10/24 14:23:40;;;;;;;11.43;4.53;;;;;;;13.38;75.57;100444.25;10438364;28;20049;-67
2022/10/24 14:28:51;;;;;;;9.40;4.45;;;;;;;13.13;75.77;100430.34;10456112;28;20048;-67
2022/10/24 14:33:55;;;;;;;9.95;4.47;;;;;;;13.49;76.23;100504.38;10453631;28;20053;-67
2022/10/24 14:38:58;;;;;;;9.52;4.95;;;;;;;13.28;76.25;100499.72;10456446;28;20496;-67
2022/10/24 14:43:59;;;;;;;7.78;4.30;;;;;;;13.16;76.74;100491.31;10446415;28;20072;-67
2022/10/24 14:49:18;;;;;;;8.68;4.25;;;;;;;13.23;76.91;100516.25;10414899;28;20049;-66
2022/10/24 14:54:31;;;;;;;8.25;4.35;;;;;;;13.13;77.64;100528.16;10414717;28;20402;-67
2022/10/24 14:59:42;;;;;;;12.88;5.13;;;;;;;12.85;78.66;100522.56;10414397;28;20055;-67
2022/10/24 15:04:44;;;;;;;8.70;4.95;;;;;;;12.86;78.34;100550.88;10413401;28;20044;-67
2022/10/24 15:10:00;;;;;;;7.07;4.40;;;;;;;12.23;80.43;100464.88;10415010;28;20088;-66
2022/10/24 15:15:17;;;;;;;8.43;5.13;;;;;;;12.65;80.24;100559.53;10425012;28;20068;-67
2022/10/24 15:20:21;;;;;;;6.57;4.15;;;;;;;12.53;80.06;100567.09;10413714;28;20049;-67
2022/10/24 15:25:28;;;;;;;7.60;5.22;;;;;;;12.49;80.15;100582.59;10413565;28;20087;-67
2022/10/24 15:30:30;;;;;;;12.85;4.22;;;;;;;12.37;80.48;100585.84;10413003;28;20061;-67
2022/10/24 15:35:39;;;;;;;9.50;4.68;;;;;;;12.39;81.35;100607.81;10412394;28;20488;-67
2022/10/24 15:40:43;;;;;;;7.63;4.30;;;;;;;11.85;80.91;100537.44;10426448;28;20045;-67
2022/10/24 15:45:45;;;;;;;7.88;4.38;;;;;;;12.22;81.04;100605.19;10412349;28;20041;-68
2022/10/24 15:50:45;;;;;;;6.93;4.40;;;;;;;12.08;81.27;100593.44;10413956;28;20041;-67
2022/10/24 15:55:47;;;;;;;7.32;4.13;;;;;;;11.62;81.74;100539.13;10412795;28;20497;-67
2022/10/24 16:00:49;;;;;;;8.23;4.20;;;;;;;12.07;82.00;100623.72;10412377;28;20523;-67
2022/10/24 16:05:55;;;;;;;5.05;3.88;;;;;;;12.01;82.22;100634.22;10412095;28;20044;-67
2022/10/24 16:10:56;;;;;;;6.63;4.05;;;;;;;11.98;81.61;100631.91;10412002;28;20045;-68
2022/10/24 16:15:57;;;;;;;5.35;3.25;;;;;;;11.97;81.04;100636.41;10422906;28;20041;-67
2022/10/24 16:20:59;;;;;;;5.53;3.38;;;;;;;11.93;80.14;100661.69;10411748;28;20646;-67
2022/10/24 16:26:00;;;;;;;6.43;3.53;;;;;;;11.56;79.90;100606.34;10412078;28;20038;-67
2022/10/24 16:31:03;;;;;;;5.03;3.45;;;;;;;11.34;79.89;100602.53;10414758;28;20144;-67
2022/10/24 16:36:04;;;;;;;6.82;3.50;;;;;;;11.20;80.16;100596.03;10449547;28;20087;-67
2022/10/24 16:41:05;;;;;;;6.30;3.72;;;;;;;11.20;79.64;100598.69;10439625;28;20086;-68
2022/10/24 16:46:06;;;;;;;7.68;4.10;;;;;;;11.64;79.60;100680.84;10447862;28;20102;-67
2022/10/24 16:51:16;;;;;;;6.07;3.88;;;;;;;11.60;79.70;100682.16;10449726;28;20037;-67
2022/10/24 16:56:16;;;;;;;6.70;3.80;;;;;;;11.13;79.54;100611.00;10455615;28;20400;-67
2022/10/24 17:01:18;;;;;;;8.75;3.95;;;;;;;11.50;80.09;100671.69;10458810;28;20174;-66
2022/10/24 17:06:18;;;;;;;6.03;4.05;;;;;;;11.51;79.73;100672.50;10459887;28;20051;-66
2022/10/24 17:11:19;;;;;;;5.30;3.95;;;;;;;11.57;80.39;100709.09;10459210;28;20493;-66
2022/10/24 17:16:20;;;;;;;6.28;3.80;;;;;;;10.97;80.31;100594.00;10441237;28;20045;-66
2022/10/24 17:21:23;;;;;;;6.45;4.55;;;;;;;11.77;79.97;100693.63;10445601;28;20045;-67
2022/10/24 17:26:24;;;;;;;6.25;4.22;;;;;;;11.79;79.51;100686.31;10450440;28;20040;-67
2022/10/24 17:31:25;;;;;;;7.32;3.97;;;;;;;11.63;79.78;100681.81;10452680;28;20057;-67
2022/10/24 17:36:31;;;;;;;5.82;3.72;;;;;;;11.70;79.63;100709.44;10449416;28;20042;-67
2022/10/24 17:41:38;;;;;;;5.72;3.97;;;;;;;11.82;80.06;100721.41;10425822;28;20041;-67
2022/10/24 17:46:38;;;;;;;5.28;3.70;;;;;;;11.70;79.96;100720.09;10435674;28;20045;-67
2022/10/24 17:51:40;;;;;;;5.70;3.92;;;;;;;11.29;80.32;100669.50;10431923;28;20045;-67
2022/10/24 17:56:42;;;;;;;6.05;3.80;;;;;;;11.67;80.70;100741.72;10433302;28;20034;-67
2022/10/24 18:01:43;;;;;;;4.97;3.47;;;;;;;11.65;80.46;100733.06;10432203;28;20040;-67
2022/10/24 18:06:44;;;;;;;5.20;3.45;;;;;;;10.78;81.04;100590.84;10432724;28;20045;-69
2022/10/24 18:11:44;;;;;;;5.57;4.00;;;;;;;11.62;81.08;100738.69;10438817;28;20040;-67
2022/10/24 18:16:45;;;;;;;4.85;3.50;;;;;;;11.47;81.73;100740.34;10467186;28;20516;-67
2022/10/24 18:21:46;;;;;;;5.88;3.35;;;;;;;11.41;82.40;100757.78;10456464;28;20069;-68
2022/10/24 18:26:47;;;;;;;5.05;3.35;;;;;;;11.27;82.27;100726.50;10426425;28;20099;-68
2022/10/24 18:31:48;;;;;;;5.72;3.08;;;;;;;11.38;81.96;100747.47;10415743;28;20152;-67
2022/10/24 18:36:49;;;;;;;4.90;2.97;;;;;;;11.25;81.40;100728.50;10415627;28;20049;-66
2022/10/24 18:42:03;;;;;;;5.13;2.67;;;;;;;11.29;80.67;100737.81;10415413;28;20037;-66
2022/10/24 18:47:06;;;;;;;3.80;2.47;;;;;;;11.40;79.90;100766.78;10414750;28;20048;-67
2022/10/24 18:52:10;;;;;;;4.20;2.95;;;;;;;10.89;79.72;100681.72;10415159;28;20038;-67
2022/10/24 18:57:23;;;;;;;6.20;3.17;;;;;;;11.44;80.50;100768.13;10430732;28;20045;-67
2022/10/24 19:02:47;;;;;;;5.07;2.83;;;;;;;11.44;80.71;100762.78;10413754;28;20059;-66
2022/10/24 19:07:49;;;;;;;6.93;3.88;;;;;;;10.87;80.75;100681.06;10414656;28;20080;-68
2022/10/24 19:12:50;;;;;;;7.15;3.30;;;;;;;11.09;80.82;100716.00;10414053;28;20548;-66
2022/10/24 19:17:51;;;;;;;5.82;3.70;;;;;;;11.08;81.39;100736.44;10412625;28;20053;-66
2022/10/24 19:22:52;;;;;;;5.45;3.53;;;;;;;11.27;81.38;100769.06;10413807;28;20401;-66
2022/10/24 19:27:53;;;;;;;7.38;3.92;;;;;;;11.12;80.99;100752.91;10413299;28;20045;-67
2022/10/24 19:32:55;;;;;;;5.47;3.72;;;;;;;10.92;81.00;100721.28;10413492;28;20065;-67
2022/10/24 19:37:55;;;;;;;7.38;3.95;;;;;;;11.33;81.10;100774.56;10414049;28;20052;-67
2022/10/24 19:42:56;;;;;;;7.00;4.50;;;;;;;10.87;81.18;100686.38;10413162;28;20152;-67
2022/10/24 19:47:57;;;;;;;5.85;3.97;;;;;;;11.37;80.76;100757.28;10413406;28;20045;-67
2022/10/24 19:52:58;;;;;;;5.90;4.03;;;;;;;11.36;81.16;100758.28;10412874;28;20100;-66
2022/10/24 19:57:59;;;;;;;7.13;4.78;;;;;;;11.40;80.95;100762.28;10412928;28;20099;-66
2022/10/24 20:02:59;;;;;;;4.85;3.83;;;;;;;11.40;80.75;100743.66;10423257;28;20490;-66
2022/10/24 20:08:00;;;;;;;6.13;4.50;;;;;;;10.77;81.30;100660.91;10423226;28;20042;-67
2022/10/24 20:13:01;;;;;;;5.65;4.00;;;;;;;11.12;81.57;100739.59;10412192;28;20042;-68
2022/10/24 20:18:02;;;;;;;5.90;4.28;;;;;;;11.02;82.16;100749.56;10412717;28;20033;-67
2022/10/24 20:23:03;;;;;;;6.40;4.80;;;;;;;10.48;82.56;100681.56;10412867;28;20045;-67
2022/10/24 20:28:03;;;;;;;8.02;5.00;;;;;;;10.72;82.73;100720.69;10412884;28;20582;-67
2022/10/24 20:33:04;;;;;;;5.78;4.63;;;;;;;11.00;83.01;100759.50;10420207;28;20136;-66
2022/10/24 20:38:05;;;;;;;9.30;5.18;;;;;;;10.51;82.89;100691.88;10420718;28;20041;-66
2022/10/24 20:43:06;;;;;;;7.07;5.00;;;;;;;10.96;83.14;100769.63;10420473;28;20412;-66
2022/10/24 20:48:07;;;;;;;6.30;4.47;;;;;;;10.92;82.98;100769.13;10419258;28;20038;-67
2022/10/24 20:53:08;;;;;;;7.32;5.03;;;;;;;10.91;82.44;100759.47;10435090;28;20040;-65
2022/10/24 20:58:12;;;;;;;6.45;4.40;;;;;;;10.09;82.48;100637.88;10419700;28;20045;-66
2022/10/24 21:03:14;;;;;;;6.07;4.78;;;;;;;10.46;82.28;100707.44;10418628;28;20132;-65
2022/10/24 21:08:14;;;;;;;7.03;4.93;;;;;;;10.33;82.37;100688.47;10418690;28;20407;-66
2022/10/24 21:13:15;;;;;;;6.60;5.05;;;;;;;10.84;82.64;100778.88;10419353;28;20112;-66
2022/10/24 21:18:16;;;;;;;7.57;4.75;;;;;;;10.84;82.10;100774.41;10443164;28;20151;-67
2022/10/24 21:23:17;;;;;;;8.45;4.35;;;;;;;10.82;82.35;100768.41;10459833;28;20052;-66
2022/10/24 21:28:17;;;;;;;6.35;4.32;;;;;;;10.71;82.29;100750.09;10474946;28;20044;-66
2022/10/24 21:33:18;;;;;;;7.10;4.50;;;;;;;10.29;81.97;100687.13;10459426;28;20421;-66
2022/10/24 21:38:19;;;;;;;5.28;3.83;;;;;;;10.70;82.30;100775.81;10458100;28;20056;-66
2022/10/24 21:43:20;;;;;;;5.47;3.85;;;;;;;10.37;82.65;100715.53;10459074;28;20492;-66
2022/10/24 21:48:20;;;;;;;6.05;4.13;;;;;;;10.35;82.50;100713.06;10458815;28;20488;-66
2022/10/24 21:53:21;;;;;;;6.50;4.20;;;;;;;10.84;82.95;100787.69;10458080;28;20041;-66
2022/10/24 21:58:22;;;;;;;6.00;4.05;;;;;;;10.85;82.31;100785.84;10458263;28;20127;-65
2022/10/24 22:03:23;;;;;;;5.82;3.97;;;;;;;10.90;82.34;100791.53;10458208;28;20579;-66
2022/10/24 22:08:24;;;;;;;5.20;3.60;;;;;;;11.00;82.49;100802.88;10458573;28;20419;-66
2022/10/24 22:13:25;;;;;;;7.60;4.03;;;;;;;10.91;82.34;100788.69;10457949;28;20086;-66
2022/10/24 22:18:28;;;;;;;5.32;4.30;;;;;;;11.06;82.30;100812.03;10457171;28;20092;-66
2022/10/24 22:23:30;;;;;;;6.38;4.45;;;;;;;10.93;82.32;100792.03;10456773;28;20040;-66
2022/10/24 22:28:30;;;;;;;6.57;4.80;;;;;;;11.04;82.88;100809.53;10457298;28;20045;-66
2022/10/24 22:33:34;;;;;;;9.57;5.10;;;;;;;10.58;83.03;100744.38;10456564;28;20049;-66
2022/10/24 22:38:35;;;;;;;5.20;4.37;;;;;;;11.03;83.32;100822.97;10456901;28;20070;-66
2022/10/24 22:43:37;;;;;;;7.32;4.38;;;;;;;10.97;83.32;100824.44;10456154;28;20492;-66
2022/10/24 22:48:41;;;;;;;5.55;3.90;;;;;;;10.39;83.25;100737.47;10457144;28;20040;-66
2022/10/24 22:53:42;;;;;;;7.43;4.88;;;;;;;10.99;82.25;100835.75;10455388;28;20045;-66
2022/10/24 22:58:44;;;;;;;6.10;3.88;;;;;;;10.45;81.92;100735.00;10456022;28;20551;-66
2022/10/24 23:04:13;;;;;;;5.47;3.70;;;;;;;11.06;82.27;100833.28;10455749;28;20079;-66
2022/10/24 23:09:14;;;;;;;5.07;3.47;;;;;;;11.05;82.12;100826.31;10455833;28;20079;-66